createdAt,value
2019-05-20T00:00:19.023Z,1000.77
2019-05-20T00:01:18.999Z,1000.82
2019-05-20T00:02:25.849Z,1000.80
2019-05-20T00:03:19.975Z,1000.82
2019-05-20T00:04:18.981Z,1000.84
2019-05-20T00:05:18.971Z,1000.85
2019-05-20T00:06:18.956Z,1000.87
2019-05-20T00:07:18.934Z,1000.85
2019-05-20T00:08:18.923Z,1000.88
2019-05-20T00:09:18.912Z,1000.88
2019-05-20T00:10:18.901Z,1000.89
2019-05-20T00:11:18.928Z,1000.87
2019-05-20T00:12:18.955Z,1000.89
2019-05-20T00:13:18.870Z,1000.83
2019-05-20T00:14:18.862Z,1000.94
2019-05-20T00:15:18.852Z,1000.93
2019-05-20T00:16:18.897Z,1000.91
2019-05-20T00:17:18.838Z,1000.95
2019-05-20T00:18:18.828Z,1000.95
2019-05-20T00:19:18.807Z,1000.95
2019-05-20T00:20:18.795Z,1000.94
2019-05-20T00:21:18.785Z,1000.87
2019-05-20T00:22:18.774Z,1000.94
2019-05-20T00:23:18.773Z,1000.92
2019-05-20T00:24:18.794Z,1001.04
2019-05-20T00:25:18.743Z,1000.96
2019-05-20T00:26:18.733Z,1001.00
2019-05-20T00:27:18.728Z,1000.98
2019-05-20T00:28:18.711Z,1001.06
2019-05-20T00:29:18.711Z,1001.04
2019-05-20T00:30:18.702Z,1001.03
2019-05-20T00:31:18.680Z,1001.00
2019-05-20T00:32:18.671Z,1001.02
2019-05-20T00:33:18.659Z,1001.03
2019-05-20T00:34:32.705Z,1001.00
2019-05-20T00:35:19.650Z,1000.97
2019-05-20T00:36:18.640Z,1000.98
2019-05-20T00:37:18.616Z,1000.96
2019-05-20T00:38:18.657Z,1000.93
2019-05-20T00:39:18.595Z,1000.95
2019-05-20T00:40:18.585Z,1000.95
2019-05-20T00:41:18.586Z,1000.89
2019-05-20T00:42:18.594Z,1000.92
2019-05-20T00:43:18.553Z,1000.90
2019-05-20T00:44:18.541Z,1000.89
2019-05-20T00:45:18.537Z,1000.89
2019-05-20T00:46:18.520Z,1000.91
2019-05-20T00:47:18.521Z,1000.86
2019-05-20T00:48:18.514Z,1000.88
2019-05-20T00:49:18.497Z,1000.86
2019-05-20T00:50:18.480Z,1000.86
2019-05-20T00:51:18.473Z,1000.84
2019-05-20T00:52:18.463Z,1000.82
2019-05-20T00:53:18.459Z,1000.81
2019-05-20T00:54:18.503Z,1000.88
2019-05-20T00:55:18.427Z,1000.82
2019-05-20T00:56:18.417Z,1000.79
2019-05-20T00:57:18.405Z,1000.80
2019-05-20T00:58:18.395Z,1000.76
2019-05-20T00:59:18.396Z,1000.77
2019-05-20T01:00:18.386Z,1000.76
2019-05-20T01:01:18.364Z,1000.77
2019-05-20T01:02:18.352Z,1000.81
2019-05-20T01:03:18.342Z,1000.78
2019-05-20T01:04:18.333Z,1000.78
2019-05-20T01:05:18.334Z,1000.78
2019-05-20T01:06:18.326Z,1000.77
2019-05-20T01:07:18.299Z,1000.81
2019-05-20T01:08:18.291Z,1000.80
2019-05-20T01:09:18.279Z,1000.82
2019-05-20T01:10:18.268Z,1000.85
2019-05-20T01:11:18.273Z,1000.82
2019-05-20T01:12:18.288Z,1000.78
2019-05-20T01:13:18.233Z,1000.77
2019-05-20T01:14:18.296Z,1000.82
2019-05-20T01:15:18.216Z,1000.82
2019-05-20T01:16:18.202Z,1000.77
2019-05-20T01:17:18.203Z,1000.78
2019-05-20T01:18:18.193Z,1000.81
2019-05-20T01:19:18.172Z,1000.76
2019-05-20T01:20:18.157Z,1000.83
2019-05-20T01:21:18.146Z,1000.78
2019-05-20T01:22:18.137Z,1000.82
2019-05-20T01:23:18.140Z,1000.82
2019-05-20T01:24:18.137Z,1000.86
2019-05-20T01:25:18.109Z,1000.85
2019-05-20T01:26:18.093Z,1000.92
2019-05-20T01:27:18.082Z,1000.86
2019-05-20T01:28:18.074Z,1000.94
2019-05-20T01:29:18.078Z,1000.92
2019-05-20T01:30:18.058Z,1000.95
2019-05-20T01:31:18.040Z,1000.89
2019-05-20T01:32:18.027Z,1000.91
2019-05-20T01:33:18.018Z,1000.90
2019-05-20T01:34:18.008Z,1000.92
2019-05-20T01:35:18.023Z,1000.90
2019-05-20T01:36:17.993Z,1000.92
2019-05-20T01:37:17.974Z,1000.96
2019-05-20T01:38:17.963Z,1000.95
2019-05-20T01:39:17.961Z,1000.91
2019-05-20T01:40:17.942Z,1000.93
2019-05-20T01:41:18.112Z,1000.94
2019-05-20T01:42:17.933Z,1000.98
2019-05-20T01:43:17.908Z,1001.01
2019-05-20T01:44:17.899Z,1001.04
2019-05-20T01:45:17.887Z,1001.06
2019-05-20T01:46:17.877Z,1001.05
2019-05-20T01:47:17.885Z,1001.08
2019-05-20T01:48:17.865Z,1001.07
2019-05-20T01:49:17.844Z,1001.08
2019-05-20T01:50:17.866Z,1001.03
2019-05-20T01:51:17.823Z,1001.03
2019-05-20T01:52:17.811Z,1001.03
2019-05-20T01:53:17.810Z,1001.03
2019-05-20T01:54:17.801Z,1000.98
2019-05-20T01:55:17.777Z,1001.03
2019-05-20T01:56:17.767Z,1001.01
2019-05-20T01:57:17.758Z,1001.00
2019-05-20T01:58:17.753Z,1001.04
2019-05-20T01:59:17.744Z,1001.03
2019-05-20T02:00:17.733Z,1001.07
2019-05-20T02:01:17.732Z,1001.10
2019-05-20T02:02:17.703Z,1001.04
2019-05-20T02:03:31.131Z,1001.09
2019-05-20T02:04:18.689Z,1001.13
2019-05-20T02:05:17.669Z,1001.11
2019-05-20T02:06:17.668Z,1001.09
2019-05-20T02:07:17.648Z,1001.12
2019-05-20T02:08:17.644Z,1001.10
2019-05-20T02:09:17.626Z,1001.09
2019-05-20T02:10:17.635Z,1001.04
2019-05-20T02:11:17.602Z,1001.04
2019-05-20T02:12:17.604Z,1001.12
2019-05-20T02:13:17.583Z,1001.11
2019-05-20T02:14:17.623Z,1001.12
2019-05-20T02:15:17.562Z,1001.11
2019-05-20T02:16:17.560Z,1001.09
2019-05-20T02:17:17.538Z,1001.11
2019-05-20T02:18:17.540Z,1001.15
2019-05-20T02:19:17.515Z,1001.15
2019-05-20T02:20:17.504Z,1001.16
2019-05-20T02:21:17.494Z,1001.17
2019-05-20T02:22:17.495Z,1001.17
2019-05-20T02:23:17.470Z,1001.18
2019-05-20T02:24:17.475Z,1001.17
2019-05-20T02:25:17.499Z,1001.23
2019-05-20T02:26:17.439Z,1001.21
2019-05-20T02:27:17.428Z,1001.16
2019-05-20T02:28:17.446Z,1001.17
2019-05-20T02:29:17.409Z,1001.12
2019-05-20T02:30:17.410Z,1001.16
2019-05-20T02:31:17.384Z,1001.12
2019-05-20T02:32:17.372Z,1001.08
2019-05-20T02:33:17.366Z,1001.07
2019-05-20T02:34:17.371Z,1001.07
2019-05-20T02:35:17.344Z,1001.02
2019-05-20T02:36:17.340Z,1001.04
2019-05-20T02:37:17.327Z,1001.04
2019-05-20T02:38:17.309Z,1001.00
2019-05-20T02:39:17.304Z,1001.00
2019-05-20T02:40:17.296Z,1000.96
2019-05-20T02:41:17.280Z,1001.01
2019-05-20T02:42:17.297Z,1000.96
2019-05-20T02:43:17.256Z,1001.01
2019-05-20T02:44:17.247Z,1000.99
2019-05-20T02:45:17.232Z,1001.01
2019-05-20T02:46:17.255Z,1000.95
2019-05-20T02:47:17.220Z,1000.99
2019-05-20T02:48:17.216Z,1001.05
2019-05-20T02:49:17.193Z,1000.96
2019-05-20T02:50:17.200Z,1000.93
2019-05-20T02:51:17.174Z,1000.92
2019-05-20T02:52:17.169Z,1000.92
2019-05-20T02:53:17.152Z,1000.88
2019-05-20T02:54:17.163Z,1000.89
2019-05-20T02:55:17.127Z,1000.83
2019-05-20T02:56:17.117Z,1000.85
2019-05-20T02:57:17.104Z,1000.81
2019-05-20T02:58:17.110Z,1000.82
2019-05-20T02:59:17.090Z,1000.84
2019-05-20T03:00:17.082Z,1000.80
2019-05-20T03:01:17.066Z,1000.83
2019-05-20T03:02:17.060Z,1000.87
2019-05-20T03:03:17.052Z,1000.89
2019-05-20T03:04:17.047Z,1000.97
2019-05-20T03:05:17.027Z,1000.99
2019-05-20T03:06:17.017Z,1001.00
2019-05-20T03:07:17.005Z,1001.01
2019-05-20T03:08:16.994Z,1001.05
2019-05-20T03:09:16.986Z,1001.05
2019-05-20T03:10:16.981Z,1001.04
2019-05-20T03:11:16.959Z,1001.04
2019-05-20T03:12:16.962Z,1001.02
2019-05-20T03:13:16.940Z,1001.05
2019-05-20T03:14:16.930Z,1001.04
2019-05-20T03:15:16.922Z,1001.08
2019-05-20T03:16:16.915Z,1001.08
2019-05-20T03:17:16.894Z,1001.12
2019-05-20T03:18:16.898Z,1001.12
2019-05-20T03:19:16.904Z,1001.14
2019-05-20T03:20:16.875Z,1001.16
2019-05-20T03:21:16.854Z,1001.12
2019-05-20T03:22:16.861Z,1001.20
2019-05-20T03:23:16.834Z,1001.15
2019-05-20T03:24:16.832Z,1001.16
2019-05-20T03:25:16.818Z,1001.15
2019-05-20T03:26:16.798Z,1001.15
2019-05-20T03:27:16.788Z,1001.21
2019-05-20T03:28:16.790Z,1001.14
2019-05-20T03:29:16.780Z,1001.13
2019-05-20T03:30:16.794Z,1001.18
2019-05-20T03:31:16.744Z,1001.18
2019-05-20T03:32:16.736Z,1001.15
2019-05-20T03:33:16.733Z,1001.17
2019-05-20T03:34:42.114Z,1001.17
2019-05-20T03:35:17.721Z,1001.17
2019-05-20T03:36:16.721Z,1001.17
2019-05-20T03:37:16.702Z,1001.19
2019-05-20T03:38:16.680Z,1001.18
2019-05-20T03:39:16.660Z,1001.16
2019-05-20T03:40:16.659Z,1001.14
2019-05-20T03:41:16.651Z,1001.15
2019-05-20T03:42:16.638Z,1001.12
2019-05-20T03:43:16.621Z,1001.12
2019-05-20T03:44:16.606Z,1001.09
2019-05-20T03:45:16.618Z,1001.18
2019-05-20T03:46:16.609Z,1001.13
2019-05-20T03:47:16.583Z,1001.13
2019-05-20T03:48:16.575Z,1001.17
2019-05-20T03:49:16.552Z,1001.15
2019-05-20T03:50:16.552Z,1001.22
2019-05-20T03:51:16.553Z,1001.20
2019-05-20T03:52:16.530Z,1001.20
2019-05-20T03:53:16.509Z,1001.27
2019-05-20T03:54:16.513Z,1001.26
2019-05-20T03:55:16.499Z,1001.24
2019-05-20T03:56:16.483Z,1001.26
2019-05-20T03:57:16.487Z,1001.24
2019-05-20T03:58:16.468Z,1001.28
2019-05-20T03:59:16.462Z,1001.30
2019-05-20T04:00:16.442Z,1001.30
2019-05-20T04:01:16.492Z,1001.35
2019-05-20T04:02:16.416Z,1001.34
2019-05-20T04:03:16.426Z,1001.40
2019-05-20T04:04:16.412Z,1001.39
2019-05-20T04:05:16.383Z,1001.39
2019-05-20T04:06:16.379Z,1001.42
2019-05-20T04:07:16.366Z,1001.44
2019-05-20T04:08:16.347Z,1001.49
2019-05-20T04:09:16.336Z,1001.47
2019-05-20T04:10:16.343Z,1001.50
2019-05-20T04:11:16.325Z,1001.47
2019-05-20T04:12:16.316Z,1001.48
2019-05-20T04:13:16.315Z,1001.44
2019-05-20T04:14:16.282Z,1001.50
2019-05-20T04:15:16.285Z,1001.45
2019-05-20T04:16:16.282Z,1001.48
2019-05-20T04:17:16.252Z,1001.47
2019-05-20T04:18:16.248Z,1001.49
2019-05-20T04:19:16.249Z,1001.52
2019-05-20T04:20:16.222Z,1001.54
2019-05-20T04:21:16.207Z,1001.57
2019-05-20T04:22:16.224Z,1001.55
2019-05-20T04:23:16.188Z,1001.55
2019-05-20T04:24:16.184Z,1001.54
2019-05-20T04:25:16.174Z,1001.55
2019-05-20T04:26:16.156Z,1001.49
2019-05-20T04:27:16.207Z,1001.48
2019-05-20T04:28:16.183Z,1001.55
2019-05-20T04:29:16.117Z,1001.55
2019-05-20T04:30:18.838Z,1001.57
2019-05-20T04:31:16.105Z,1001.60
2019-05-20T04:32:16.091Z,1001.64
2019-05-20T04:33:16.083Z,1001.60
2019-05-20T04:34:16.075Z,1001.62
2019-05-20T04:35:22.487Z,1001.62
2019-05-20T04:36:17.057Z,1001.60
2019-05-20T04:37:16.031Z,1001.60
2019-05-20T04:38:16.025Z,1001.57
2019-05-20T04:39:16.020Z,1001.59
2019-05-20T04:40:16.011Z,1001.61
2019-05-20T04:41:16.006Z,1001.57
2019-05-20T04:42:15.993Z,1001.59
2019-05-20T04:43:15.974Z,1001.60
2019-05-20T04:44:15.967Z,1001.57
2019-05-20T04:45:15.944Z,1001.52
2019-05-20T04:46:15.946Z,1001.49
2019-05-20T04:47:15.928Z,1001.51
2019-05-20T04:48:15.925Z,1001.48
2019-05-20T04:49:15.905Z,1001.44
2019-05-20T04:50:15.896Z,1001.49
2019-05-20T04:51:15.892Z,1001.45
2019-05-20T04:52:15.888Z,1001.42
2019-05-20T04:53:15.860Z,1001.39
2019-05-20T04:54:15.856Z,1001.41
2019-05-20T04:55:15.859Z,1001.36
2019-05-20T04:56:15.831Z,1001.33
2019-05-20T04:57:15.820Z,1001.32
2019-05-20T04:58:15.819Z,1001.31
2019-05-20T04:59:15.794Z,1001.32
2019-05-20T05:00:15.797Z,1001.35
2019-05-20T05:01:15.773Z,1001.29
2019-05-20T05:02:15.767Z,1001.32
2019-05-20T05:03:15.754Z,1001.37
2019-05-20T05:04:15.755Z,1001.40
2019-05-20T05:05:15.733Z,1001.40
2019-05-20T05:06:15.732Z,1001.41
2019-05-20T05:07:15.711Z,1001.41
2019-05-20T05:08:15.703Z,1001.40
2019-05-20T05:09:15.853Z,1001.34
2019-05-20T05:10:15.697Z,1001.41
2019-05-20T05:11:15.668Z,1001.40
2019-05-20T05:12:15.665Z,1001.37
2019-05-20T05:13:15.648Z,1001.47
2019-05-20T05:14:15.636Z,1001.50
2019-05-20T05:15:15.622Z,1001.47
2019-05-20T05:16:15.623Z,1001.49
2019-05-20T05:17:15.608Z,1001.50
2019-05-20T05:18:15.607Z,1001.57
2019-05-20T05:19:15.588Z,1001.54
2019-05-20T05:20:18.496Z,1001.56
2019-05-20T05:21:15.558Z,1001.56
2019-05-20T05:22:15.559Z,1001.56
2019-05-20T05:23:15.538Z,1001.58
2019-05-20T05:24:15.539Z,1001.54
2019-05-20T05:25:15.518Z,1001.59
2019-05-20T05:26:15.509Z,1001.58
2019-05-20T05:27:15.495Z,1001.65
2019-05-20T05:28:15.493Z,1001.63
2019-05-20T05:29:15.478Z,1001.62
2019-05-20T05:30:15.488Z,1001.63
2019-05-20T05:31:15.453Z,1001.64
2019-05-20T05:32:15.468Z,1001.62
2019-05-20T05:33:15.435Z,1001.57
2019-05-20T05:34:15.430Z,1001.61
2019-05-20T05:35:15.436Z,1001.57
2019-05-20T05:36:15.414Z,1001.55
2019-05-20T05:37:15.389Z,1001.56
2019-05-20T05:38:15.385Z,1001.57
2019-05-20T05:39:15.374Z,1001.55
2019-05-20T05:40:15.397Z,1001.59
2019-05-20T05:41:15.356Z,1001.52
2019-05-20T05:42:15.395Z,1001.52
2019-05-20T05:43:15.325Z,1001.54
2019-05-20T05:44:15.314Z,1001.57
2019-05-20T05:45:15.314Z,1001.57
2019-05-20T05:46:15.303Z,1001.58
2019-05-20T05:47:15.290Z,1001.59
2019-05-20T05:48:15.284Z,1001.57
2019-05-20T05:49:15.262Z,1001.60
2019-05-20T05:50:15.251Z,1001.61
2019-05-20T05:51:15.246Z,1001.65
2019-05-20T05:52:15.248Z,1001.68
2019-05-20T05:53:15.227Z,1001.69
2019-05-20T05:54:15.229Z,1001.69
2019-05-20T05:55:15.196Z,1001.71
2019-05-20T05:56:15.193Z,1001.75
2019-05-20T05:57:15.177Z,1001.73
2019-05-20T05:58:15.187Z,1001.69
2019-05-20T05:59:15.168Z,1001.68
2019-05-20T06:00:15.155Z,1001.65
2019-05-20T06:01:15.134Z,1001.68
2019-05-20T06:02:15.127Z,1001.68
2019-05-20T06:03:15.114Z,1001.64
2019-05-20T06:04:15.128Z,1001.51
2019-05-20T06:05:15.094Z,1001.60
2019-05-20T06:06:15.091Z,1001.60
2019-05-20T06:07:15.072Z,1001.62
2019-05-20T06:08:15.065Z,1001.65
2019-05-20T06:09:15.055Z,1001.60
2019-05-20T06:10:15.053Z,1001.61
2019-05-20T06:11:15.033Z,1001.66
2019-05-20T06:12:15.026Z,1001.65
2019-05-20T06:13:15.009Z,1001.70
2019-05-20T06:14:15.004Z,1001.69
2019-05-20T06:15:14.994Z,1001.74
2019-05-20T06:16:14.992Z,1001.75
2019-05-20T06:17:14.971Z,1001.79
2019-05-20T06:18:14.964Z,1001.79
2019-05-20T06:19:14.976Z,1001.78
2019-05-20T06:20:14.930Z,1001.77
2019-05-20T06:21:14.922Z,1001.84
2019-05-20T06:22:14.919Z,1001.77
2019-05-20T06:23:14.901Z,1001.81
2019-05-20T06:24:14.896Z,1001.82
2019-05-20T06:25:14.885Z,1001.85
2019-05-20T06:26:14.931Z,1001.84
2019-05-20T06:27:14.856Z,1001.86
2019-05-20T06:28:14.857Z,1001.90
2019-05-20T06:29:14.830Z,1001.95
2019-05-20T06:30:14.834Z,1001.90
2019-05-20T06:31:14.813Z,1001.95
2019-05-20T06:32:15.097Z,1001.88
2019-05-20T06:33:14.787Z,1001.90
2019-05-20T06:34:14.959Z,1001.87
2019-05-20T06:35:14.908Z,1001.88
2019-05-20T06:36:26.566Z,1001.86
2019-05-20T06:37:15.742Z,1001.85
2019-05-20T06:38:14.737Z,1001.83
2019-05-20T06:39:14.730Z,1001.84
2019-05-20T06:40:14.721Z,1001.84
2019-05-20T06:41:14.702Z,1001.88
2019-05-20T06:42:14.697Z,1001.89
2019-05-20T06:43:14.678Z,1001.86
2019-05-20T06:44:14.665Z,1001.91
2019-05-20T06:45:14.655Z,1001.89
2019-05-20T06:46:14.656Z,1001.92
2019-05-20T06:47:14.633Z,1001.96
2019-05-20T06:48:14.637Z,1001.98
2019-05-20T06:49:14.611Z,1001.97
2019-05-20T06:50:14.602Z,1002.00
2019-05-20T06:51:14.591Z,1002.02
2019-05-20T06:52:14.591Z,1001.99
2019-05-20T06:53:14.569Z,1002.03
2019-05-20T06:54:14.569Z,1002.09
2019-05-20T06:55:14.545Z,1002.10
2019-05-20T06:56:14.534Z,1002.09
2019-05-20T06:57:14.617Z,1002.10
2019-05-20T06:58:14.529Z,1002.11
2019-05-20T06:59:14.505Z,1002.08
2019-05-20T07:00:14.503Z,1002.09
2019-05-20T07:01:14.480Z,1002.13
2019-05-20T07:02:14.470Z,1002.10
2019-05-20T07:03:14.458Z,1002.12
2019-05-20T07:04:14.466Z,1002.12
2019-05-20T07:05:14.437Z,1002.12
2019-05-20T07:06:14.448Z,1002.18
2019-05-20T07:07:20.825Z,1002.19
2019-05-20T07:08:15.405Z,1002.18
2019-05-20T07:09:14.394Z,1002.21
2019-05-20T07:10:14.398Z,1002.22
2019-05-20T07:11:14.390Z,1002.22
2019-05-20T07:12:14.367Z,1002.22
2019-05-20T07:13:16.369Z,1002.18
2019-05-20T07:14:14.377Z,1002.27
2019-05-20T07:15:14.327Z,1002.24
2019-05-20T07:16:14.348Z,1002.29
2019-05-20T07:17:14.303Z,1002.25
2019-05-20T07:18:14.304Z,1002.25
2019-05-20T07:19:14.283Z,1002.29
2019-05-20T07:20:14.270Z,1002.32
2019-05-20T07:21:14.260Z,1002.33
2019-05-20T07:22:14.261Z,1002.36
2019-05-20T07:23:14.237Z,1002.31
2019-05-20T07:24:14.243Z,1002.37
2019-05-20T07:25:14.216Z,1002.31
2019-05-20T07:26:14.205Z,1002.34
2019-05-20T07:27:14.193Z,1002.33
2019-05-20T07:28:14.196Z,1002.35
2019-05-20T07:29:14.197Z,1002.36
2019-05-20T07:30:15.549Z,1002.37
2019-05-20T07:31:14.154Z,1002.33
2019-05-20T07:32:14.142Z,1002.32
2019-05-20T07:33:14.129Z,1002.26
2019-05-20T07:34:14.130Z,1002.24
2019-05-20T07:35:28.895Z,1002.25
2019-05-20T07:36:15.109Z,1002.27
2019-05-20T07:37:14.086Z,1002.20
2019-05-20T07:38:14.075Z,1002.24
2019-05-20T07:39:14.067Z,1002.19
2019-05-20T07:40:14.065Z,1002.25
2019-05-20T07:41:14.043Z,1002.26
2019-05-20T07:42:14.041Z,1002.28
2019-05-20T07:43:14.024Z,1002.28
2019-05-20T07:44:14.011Z,1002.26
2019-05-20T07:45:14.020Z,1002.27
2019-05-20T07:46:14.005Z,1002.24
2019-05-20T07:47:13.985Z,1002.30
2019-05-20T07:48:13.981Z,1002.28
2019-05-20T07:49:13.958Z,1002.27
2019-05-20T07:50:13.949Z,1002.29
2019-05-20T07:51:13.942Z,1002.33
2019-05-20T07:52:13.970Z,1002.35
2019-05-20T07:53:13.915Z,1002.37
2019-05-20T07:54:13.929Z,1002.40
2019-05-20T07:55:13.895Z,1002.43
2019-05-20T07:56:13.885Z,1002.38
2019-05-20T07:57:13.879Z,1002.42
2019-05-20T07:58:13.889Z,1002.39
2019-05-20T07:59:13.853Z,1002.36
2019-05-20T08:00:13.855Z,1002.36
2019-05-20T08:01:13.853Z,1002.28
2019-05-20T08:02:13.821Z,1002.32
2019-05-20T08:03:13.809Z,1002.37
2019-05-20T08:04:13.878Z,1002.39
2019-05-20T08:05:13.796Z,1002.37
2019-05-20T08:06:13.792Z,1002.36
2019-05-20T08:07:27.483Z,1002.38
2019-05-20T08:08:14.755Z,1002.40
2019-05-20T08:09:13.745Z,1002.38
2019-05-20T08:10:13.791Z,1002.40
2019-05-20T08:11:13.724Z,1002.45
2019-05-20T08:12:13.723Z,1002.44
2019-05-20T08:13:13.703Z,1002.45
2019-05-20T08:14:13.692Z,1002.43
2019-05-20T08:15:13.683Z,1002.40
2019-05-20T08:16:13.685Z,1002.48
2019-05-20T08:17:13.666Z,1002.45
2019-05-20T08:18:13.660Z,1002.47
2019-05-20T08:19:13.645Z,1002.48
2019-05-20T08:20:13.629Z,1002.51
2019-05-20T08:21:13.621Z,1002.55
2019-05-20T08:22:13.619Z,1002.55
2019-05-20T08:23:13.605Z,1002.53
2019-05-20T08:24:13.600Z,1002.51
2019-05-20T08:25:13.576Z,1002.53
2019-05-20T08:26:13.563Z,1002.48
2019-05-20T08:27:13.564Z,1002.50
2019-05-20T08:28:13.558Z,1002.51
2019-05-20T08:29:13.531Z,1002.51
2019-05-20T08:30:14.279Z,1002.47
2019-05-20T08:31:13.522Z,1002.50
2019-05-20T08:32:13.496Z,1002.49
2019-05-20T08:33:13.485Z,1002.47
2019-05-20T08:34:13.485Z,1002.44
2019-05-20T08:35:13.467Z,1002.49
2019-05-20T08:36:13.464Z,1002.54
2019-05-20T08:37:13.486Z,1002.57
2019-05-20T08:38:13.431Z,1002.56
2019-05-20T08:39:13.421Z,1002.59
2019-05-20T08:40:13.421Z,1002.58
2019-05-20T08:41:13.399Z,1002.64
2019-05-20T08:42:13.402Z,1002.64
2019-05-20T08:43:13.376Z,1002.65
2019-05-20T08:44:13.365Z,1002.68
2019-05-20T08:45:13.356Z,1002.67
2019-05-20T08:46:13.360Z,1002.66
2019-05-20T08:47:13.332Z,1002.68
2019-05-20T08:48:13.337Z,1002.69
2019-05-20T08:49:13.315Z,1002.67
2019-05-20T08:50:16.095Z,1002.69
2019-05-20T08:51:13.290Z,1002.74
2019-05-20T08:52:13.344Z,1002.72
2019-05-20T08:53:13.274Z,1002.75
2019-05-20T08:54:13.271Z,1002.78
2019-05-20T08:55:13.247Z,1002.79
2019-05-20T08:56:13.252Z,1002.78
2019-05-20T08:57:13.231Z,1002.75
2019-05-20T08:58:13.244Z,1002.74
2019-05-20T08:59:13.205Z,1002.76
2019-05-20T09:00:13.207Z,1002.80
2019-05-20T09:01:13.185Z,1002.78
2019-05-20T09:02:13.187Z,1002.78
2019-05-20T09:03:13.161Z,1002.77
2019-05-20T09:04:13.161Z,1002.76
2019-05-20T09:05:13.144Z,1002.82
2019-05-20T09:06:13.153Z,1002.79
2019-05-20T09:07:13.122Z,1002.77
2019-05-20T09:08:13.107Z,1002.76
2019-05-20T09:09:13.096Z,1002.76
2019-05-20T09:10:13.099Z,1002.77
2019-05-20T09:11:13.075Z,1002.74
2019-05-20T09:12:13.076Z,1002.73
2019-05-20T09:13:13.052Z,1002.74
2019-05-20T09:14:13.050Z,1002.75
2019-05-20T09:15:13.031Z,1002.79
2019-05-20T09:16:13.037Z,1002.78
2019-05-20T09:17:13.011Z,1002.71
2019-05-20T09:18:13.023Z,1002.75
2019-05-20T09:19:12.993Z,1002.79
2019-05-20T09:20:12.977Z,1002.77
2019-05-20T09:21:13.080Z,1002.77
2019-05-20T09:22:12.978Z,1002.77
2019-05-20T09:23:12.948Z,1002.71
2019-05-20T09:24:12.947Z,1002.73
2019-05-20T09:25:12.967Z,1002.73
2019-05-20T09:26:12.915Z,1002.68
2019-05-20T09:27:12.927Z,1002.71
2019-05-20T09:28:12.912Z,1002.72
2019-05-20T09:29:12.885Z,1002.74
2019-05-20T09:30:12.884Z,1002.74
2019-05-20T09:31:13.123Z,1002.74
2019-05-20T09:32:12.852Z,1002.69
2019-05-20T09:33:12.915Z,1002.74
2019-05-20T09:34:12.869Z,1002.67
2019-05-20T09:35:12.829Z,1002.64
2019-05-20T09:36:12.819Z,1002.65
2019-05-20T09:37:12.810Z,1002.67
2019-05-20T09:38:20.262Z,1002.67
2019-05-20T09:39:13.815Z,1002.65
2019-05-20T09:40:12.768Z,1002.69
2019-05-20T09:41:12.753Z,1002.65
2019-05-20T09:42:12.781Z,1002.73
2019-05-20T09:43:12.733Z,1002.72
2019-05-20T09:44:12.723Z,1002.73
2019-05-20T09:45:12.733Z,1002.81
2019-05-20T09:46:12.712Z,1002.79
2019-05-20T09:47:12.690Z,1002.81
2019-05-20T09:48:12.690Z,1002.84
2019-05-20T09:49:12.669Z,1002.81
2019-05-20T09:50:12.658Z,1002.82
2019-05-20T09:51:12.667Z,1002.77
2019-05-20T09:52:12.639Z,1002.76
2019-05-20T09:53:12.629Z,1002.77
2019-05-20T09:54:12.632Z,1002.78
2019-05-20T09:55:12.604Z,1002.82
2019-05-20T09:56:12.599Z,1002.82
2019-05-20T09:57:12.594Z,1002.81
2019-05-20T09:58:12.573Z,1002.81
2019-05-20T09:59:16.209Z,1002.81
2019-05-20T10:00:12.561Z,1002.81
2019-05-20T10:01:12.540Z,1002.83
2019-05-20T10:02:12.535Z,1002.79
2019-05-20T10:03:12.542Z,1002.85
2019-05-20T10:04:12.508Z,1002.80
2019-05-20T10:05:12.504Z,1002.83
2019-05-20T10:06:12.517Z,1002.85
2019-05-20T10:07:12.478Z,1002.81
2019-05-20T10:08:12.466Z,1002.85
2019-05-20T10:09:12.469Z,1002.86
2019-05-20T10:10:12.444Z,1002.93
2019-05-20T10:11:12.463Z,1002.92
2019-05-20T10:12:12.450Z,1002.92
2019-05-20T10:13:12.420Z,1002.92
2019-05-20T10:14:12.403Z,1002.90
2019-05-20T10:15:12.406Z,1002.94
2019-05-20T10:16:12.379Z,1002.93
2019-05-20T10:17:12.368Z,1002.95
2019-05-20T10:18:12.378Z,1002.92
2019-05-20T10:19:12.347Z,1002.96
2019-05-20T10:20:12.336Z,1003.00
2019-05-20T10:21:12.343Z,1002.98
2019-05-20T10:22:12.316Z,1002.98
2019-05-20T10:23:15.725Z,1003.00
2019-05-20T10:24:12.310Z,1002.96
2019-05-20T10:25:12.282Z,1003.02
2019-05-20T10:26:12.272Z,1002.96
2019-05-20T10:27:12.273Z,1002.99
2019-05-20T10:28:12.253Z,1002.95
2019-05-20T10:29:12.240Z,1003.00
2019-05-20T10:30:12.237Z,1002.99
2019-05-20T10:31:12.233Z,1002.99
2019-05-20T10:32:12.210Z,1002.99
2019-05-20T10:33:12.216Z,1003.00
2019-05-20T10:34:12.188Z,1002.99
2019-05-20T10:35:12.188Z,1002.96
2019-05-20T10:36:12.175Z,1002.95
2019-05-20T10:37:12.155Z,1002.99
2019-05-20T10:38:12.145Z,1003.01
2019-05-20T10:39:12.146Z,1003.09
2019-05-20T10:40:12.122Z,1003.05
2019-05-20T10:41:12.137Z,1003.07
2019-05-20T10:42:12.111Z,1003.06
2019-05-20T10:43:12.091Z,1003.08
2019-05-20T10:44:12.080Z,1003.06
2019-05-20T10:45:12.081Z,1003.12
2019-05-20T10:46:12.059Z,1003.07
2019-05-20T10:47:12.048Z,1003.04
2019-05-20T10:48:12.048Z,1003.07
2019-05-20T10:49:12.028Z,1003.10
2019-05-20T10:50:12.016Z,1003.08
2019-05-20T10:51:12.054Z,1003.10
2019-05-20T10:52:11.996Z,1003.10
2019-05-20T10:53:11.988Z,1003.12
2019-05-20T10:54:11.987Z,1003.10
2019-05-20T10:55:11.965Z,1003.13
2019-05-20T10:56:12.149Z,1003.10
2019-05-20T10:57:11.958Z,1003.14
2019-05-20T10:58:11.932Z,1003.11
2019-05-20T10:59:12.494Z,1003.11
2019-05-20T11:00:11.920Z,1003.08
2019-05-20T11:01:11.900Z,1003.10
2019-05-20T11:02:11.889Z,1003.10
2019-05-20T11:03:11.895Z,1003.05
2019-05-20T11:04:11.869Z,1003.07
2019-05-20T11:05:11.860Z,1003.06
2019-05-20T11:06:11.975Z,1003.09
2019-05-20T11:07:11.838Z,1003.11
2019-05-20T11:08:11.829Z,1003.15
2019-05-20T11:09:14.422Z,1003.14
2019-05-20T11:10:11.806Z,1003.17
2019-05-20T11:11:14.355Z,1003.16
2019-05-20T11:12:11.795Z,1003.13
2019-05-20T11:13:11.774Z,1003.14
2019-05-20T11:14:11.763Z,1003.13
2019-05-20T11:15:11.765Z,1003.12
2019-05-20T11:16:11.751Z,1003.08
2019-05-20T11:17:14.962Z,1003.13
2019-05-20T11:18:11.733Z,1003.05
2019-05-20T11:19:11.710Z,1003.06
2019-05-20T11:20:11.699Z,1003.12
2019-05-20T11:21:11.725Z,1003.11
2019-05-20T11:22:11.680Z,1003.11
2019-05-20T11:23:11.666Z,1003.11
2019-05-20T11:24:11.664Z,1003.11
2019-05-20T11:25:11.647Z,1003.14
2019-05-20T11:26:11.635Z,1003.12
2019-05-20T11:27:11.652Z,1003.09
2019-05-20T11:28:12.106Z,1003.11
2019-05-20T11:29:11.604Z,1003.12
2019-05-20T11:30:11.601Z,1003.12
2019-05-20T11:31:11.583Z,1003.11
2019-05-20T11:32:11.572Z,1003.10
2019-05-20T11:33:11.575Z,1003.11
2019-05-20T11:34:11.546Z,1003.10
2019-05-20T11:35:11.543Z,1003.07
2019-05-20T11:36:11.538Z,1003.09
2019-05-20T11:37:11.515Z,1003.05
2019-05-20T11:38:11.509Z,1003.08
2019-05-20T11:39:11.511Z,1003.10
2019-05-20T11:40:12.299Z,1003.06
2019-05-20T11:41:11.472Z,1003.10
2019-05-20T11:42:11.471Z,1003.02
2019-05-20T11:43:11.448Z,1003.06
2019-05-20T11:44:12.116Z,1003.09
2019-05-20T11:45:11.437Z,1003.06
2019-05-20T11:46:11.418Z,1003.05
2019-05-20T11:47:11.406Z,1003.04
2019-05-20T11:48:11.410Z,1003.03
2019-05-20T11:49:11.389Z,1003.06
2019-05-20T11:50:11.377Z,1003.02
2019-05-20T11:51:11.373Z,1003.03
2019-05-20T11:52:11.353Z,1003.03
2019-05-20T11:53:11.346Z,1003.02
2019-05-20T11:54:11.340Z,1003.03
2019-05-20T11:55:11.327Z,1003.02
2019-05-20T11:56:12.090Z,1003.10
2019-05-20T11:57:11.310Z,1003.09
2019-05-20T11:58:15.728Z,1003.04
2019-05-20T11:59:12.275Z,1003.08
2019-05-20T12:00:11.274Z,1003.07
2019-05-20T12:01:11.256Z,1003.10
2019-05-20T12:02:11.247Z,1003.12
2019-05-20T12:03:11.254Z,1003.10
2019-05-20T12:04:11.223Z,1003.08
2019-05-20T12:05:11.224Z,1003.08